createdAt,value
2018-04-18T00:01:21.107Z,29.75
2018-04-18T00:03:48.654Z,41.75
2018-04-18T00:06:16.253Z,30.10
2018-04-18T00:08:43.835Z,34.70
2018-04-18T00:11:12.217Z,32.30
2018-04-18T00:13:39.793Z,32.28
2018-04-18T00:16:08.147Z,33.97
2018-04-18T00:18:35.747Z,38.30
2018-04-18T00:21:03.328Z,35.97
2018-04-18T00:23:30.932Z,36.25
2018-04-18T00:25:58.498Z,36.22
2018-04-18T00:28:26.075Z,33.05
2018-04-18T00:30:53.671Z,37.75
2018-04-18T00:33:21.255Z,42.85
2018-04-18T00:35:48.871Z,30.67
2018-04-18T00:38:17.210Z,42.62
2018-04-18T00:40:44.785Z,33.80
2018-04-18T00:43:12.386Z,46.28
2018-04-18T00:45:39.968Z,38.38
2018-04-18T00:48:07.562Z,36.80
2018-04-18T00:50:35.911Z,33.20
2018-04-18T00:53:03.487Z,36.90
2018-04-18T00:55:31.077Z,33.67
2018-04-18T00:57:58.648Z,42.13
2018-04-18T01:00:26.249Z,30.88
2018-04-18T01:02:54.595Z,37.38
2018-04-18T01:05:22.168Z,38.42
2018-04-18T01:07:49.759Z,35.25
2018-04-18T01:10:17.337Z,41.97
2018-04-18T01:12:44.929Z,38.90
2018-04-18T01:15:13.278Z,44.83
2018-04-18T01:17:40.868Z,37.63
2018-04-18T01:20:08.465Z,32.90
2018-04-18T01:22:36.804Z,35.05
2018-04-18T01:25:04.400Z,39.88
2018-04-18T01:27:31.981Z,31.77
2018-04-18T01:29:59.559Z,35.72
2018-04-18T01:32:27.162Z,43.08
2018-04-18T01:34:54.744Z,33.53
2018-04-18T01:37:22.350Z,28.70
2018-04-18T01:39:49.940Z,31.65
2018-04-18T01:42:17.523Z,39.83
2018-04-18T01:44:45.117Z,40.88
2018-04-18T01:47:13.475Z,32.90
2018-04-18T01:49:41.063Z,36.08
2018-04-18T01:52:08.655Z,34.53
2018-04-18T01:54:36.989Z,39.45
2018-04-18T01:57:04.700Z,39.78
2018-04-18T01:59:32.269Z,43.47
2018-04-18T02:01:59.855Z,36.92
2018-04-18T02:04:28.221Z,42.92
2018-04-18T02:06:55.793Z,43.17
2018-04-18T02:09:23.374Z,37.90
2018-04-18T02:11:50.971Z,45.38
2018-04-18T02:14:19.314Z,39.55
2018-04-18T02:16:46.918Z,38.28
2018-04-18T02:19:14.538Z,46.45
2018-04-18T02:21:42.121Z,38.63
2018-04-18T02:24:09.710Z,31.80
2018-04-18T02:26:37.298Z,44.13
2018-04-18T02:29:04.902Z,45.00
2018-04-18T02:31:33.242Z,40.00
2018-04-18T02:34:00.827Z,46.08
2018-04-18T02:36:28.413Z,42.78
2018-04-18T02:38:55.991Z,44.30
2018-04-18T02:41:23.596Z,41.05
2018-04-18T02:43:51.940Z,38.33
2018-04-18T02:46:19.518Z,47.53
2018-04-18T02:48:47.123Z,52.97
2018-04-18T02:51:15.459Z,41.45
2018-04-18T02:53:43.063Z,42.22
2018-04-18T02:56:10.653Z,38.20
2018-04-18T02:58:38.994Z,43.40
2018-04-18T03:01:06.592Z,37.08
2018-04-18T03:03:34.174Z,39.78
2018-04-18T03:06:01.775Z,42.53
2018-04-18T03:08:29.349Z,35.35
2018-04-18T03:10:56.926Z,45.05
2018-04-18T03:13:24.535Z,48.50
2018-04-18T03:15:52.123Z,45.28
2018-04-18T03:18:19.726Z,44.80
2018-04-18T03:20:48.062Z,36.67
2018-04-18T03:23:15.639Z,43.50
2018-04-18T03:25:43.235Z,40.00
2018-04-18T03:28:10.820Z,32.00
2018-04-18T03:30:38.618Z,32.72
2018-04-18T03:33:06.961Z,38.90
2018-04-18T03:35:34.535Z,39.33
2018-04-18T03:38:02.130Z,49.03
2018-04-18T03:40:29.728Z,43.87
2018-04-18T03:42:58.099Z,33.95
2018-04-18T03:45:25.674Z,47.25
2018-04-18T03:47:53.258Z,35.08
2018-04-18T03:50:20.865Z,40.65
2018-04-18T03:52:48.450Z,41.15
2018-04-18T03:55:16.139Z,40.28
2018-04-18T03:57:43.732Z,39.03
2018-04-18T04:00:11.314Z,37.65
2018-04-18T04:02:38.918Z,43.22
2018-04-18T04:05:06.505Z,42.25
2018-04-18T04:07:34.205Z,33.00
2018-04-18T04:10:01.789Z,43.83
2018-04-18T04:12:29.361Z,50.83
2018-04-18T04:14:57.029Z,48.25
2018-04-18T04:17:36.390Z,41.78
2018-04-18T04:20:15.849Z,38.03
2018-04-18T04:22:56.304Z,40.83
2018-04-18T04:25:23.903Z,35.50
2018-04-18T04:27:51.478Z,40.53
2018-04-18T04:30:19.090Z,34.13
2018-04-18T04:32:46.799Z,35.55
2018-04-18T04:35:14.409Z,43.33
2018-04-18T04:37:42.032Z,49.70
2018-04-18T04:40:09.627Z,38.83
2018-04-18T04:42:37.246Z,43.22
2018-04-18T04:45:05.625Z,41.28
2018-04-18T04:47:33.218Z,42.42
2018-04-18T04:50:00.828Z,41.88
2018-04-18T04:52:28.463Z,41.58
2018-04-18T04:54:56.864Z,39.83
2018-04-18T04:57:24.443Z,41.50
2018-04-18T04:59:52.046Z,43.03
2018-04-18T05:02:19.638Z,32.90
2018-04-18T05:04:47.218Z,40.47
2018-04-18T05:07:14.813Z,35.63
2018-04-18T05:09:43.159Z,38.20
2018-04-18T05:12:10.747Z,40.12
2018-04-18T05:14:38.344Z,31.02
2018-04-18T05:17:06.698Z,36.05
2018-04-18T05:19:34.298Z,65.28
2018-04-18T05:22:01.877Z,73.28
2018-04-18T05:24:30.232Z,70.87
2018-04-18T05:26:57.824Z,53.60
2018-04-18T05:29:25.407Z,46.80
2018-04-18T05:31:53.015Z,35.97
2018-04-18T05:34:20.592Z,34.90
2018-04-18T05:36:48.169Z,33.70
2018-04-18T05:39:15.763Z,30.42
2018-04-18T05:41:43.354Z,33.10
2018-04-18T05:44:10.967Z,38.03
2018-04-18T05:46:39.327Z,37.10
2018-04-18T05:49:06.915Z,34.67
2018-04-18T05:51:34.549Z,34.83
2018-04-18T05:54:02.226Z,32.58
2018-04-18T05:56:29.814Z,31.62
2018-04-18T05:58:57.416Z,29.92
2018-04-18T06:01:25.764Z,26.58
2018-04-18T06:03:53.343Z,27.67
2018-04-18T06:06:20.934Z,25.48
2018-04-18T06:08:48.505Z,24.55
2018-04-18T06:11:16.218Z,27.60
2018-04-18T06:13:43.761Z,25.70
2018-04-18T06:16:11.403Z,24.60
2018-04-18T06:18:39.009Z,25.73
2018-04-18T06:21:06.590Z,24.48
2018-04-18T06:23:34.966Z,23.38
2018-04-18T06:26:02.560Z,25.20
2018-04-18T06:28:30.154Z,26.80
2018-04-18T06:30:57.762Z,27.60
2018-04-18T06:33:25.350Z,26.85
2018-04-18T06:35:52.969Z,26.67
2018-04-18T06:38:20.555Z,27.50
2018-04-18T06:40:48.147Z,26.05
2018-04-18T06:43:15.746Z,21.98
2018-04-18T06:45:43.366Z,24.70
2018-04-18T06:48:10.986Z,24.08
2018-04-18T06:50:38.565Z,22.48
2018-04-18T06:53:06.139Z,23.23
2018-04-18T06:55:33.705Z,22.67
2018-04-18T06:58:01.271Z,21.00
2018-04-18T07:00:28.880Z,21.00
2018-04-18T07:02:56.458Z,23.87
2018-04-18T07:05:24.018Z,22.00
2018-04-18T07:07:51.617Z,20.10
2018-04-18T07:10:19.182Z,19.70
2018-04-18T07:12:46.763Z,19.90
2018-04-18T07:15:14.328Z,20.83
2018-04-18T07:17:41.894Z,19.57
2018-04-18T07:20:09.480Z,20.50
2018-04-18T07:22:37.048Z,19.23
2018-04-18T07:25:04.630Z,18.13
2018-04-18T07:27:32.191Z,18.70
2018-04-18T07:30:00.549Z,17.13
2018-04-18T07:32:28.140Z,16.50
2018-04-18T07:34:55.699Z,17.80
2018-04-18T07:37:23.292Z,14.67
2018-04-18T07:39:50.857Z,16.83
2018-04-18T07:42:18.416Z,16.07
2018-04-18T07:44:45.998Z,15.63
2018-04-18T07:47:13.567Z,15.60
2018-04-18T07:49:41.170Z,14.13
2018-04-18T07:52:08.738Z,16.30
2018-04-18T07:54:36.298Z,15.27
2018-04-18T07:57:03.880Z,14.23
2018-04-18T07:59:31.440Z,13.33
2018-04-18T08:01:59.083Z,14.30
2018-04-18T08:04:27.393Z,12.97
2018-04-18T08:06:54.966Z,14.40
2018-04-18T08:09:22.542Z,13.33
2018-04-18T08:11:50.122Z,12.67
2018-04-18T08:14:17.724Z,12.80
2018-04-18T08:16:45.287Z,13.70
2018-04-18T08:19:12.856Z,10.77
2018-04-18T08:21:40.453Z,10.80
2018-04-18T08:24:08.779Z,11.07
2018-04-18T08:26:36.356Z,10.60
2018-04-18T08:29:03.902Z,10.43
2018-04-18T08:31:32.218Z,10.50
2018-04-18T08:33:59.802Z,10.30
2018-04-18T08:36:27.374Z,10.53
2018-04-18T08:38:54.955Z,8.70
2018-04-18T08:41:22.510Z,8.43
2018-04-18T08:43:50.079Z,8.83
2018-04-18T08:46:17.643Z,8.80
2018-04-18T08:48:45.196Z,6.87
2018-04-18T08:51:13.578Z,9.10
2018-04-18T08:53:41.900Z,9.00
2018-04-18T08:56:09.453Z,10.07
2018-04-18T08:58:37.020Z,10.30
2018-04-18T09:01:05.335Z,9.80
2018-04-18T09:03:32.915Z,8.03
2018-04-18T09:06:00.461Z,9.73
2018-04-18T09:08:28.778Z,10.50
2018-04-18T09:10:56.346Z,10.80
2018-04-18T09:13:23.895Z,10.20
2018-04-18T09:15:52.236Z,9.93
2018-04-18T09:18:19.786Z,10.07
2018-04-18T09:20:47.333Z,12.07
2018-04-18T09:23:14.895Z,11.27
2018-04-18T09:25:43.222Z,9.90
2018-04-18T09:28:10.817Z,9.37
2018-04-18T09:30:38.383Z,11.50
2018-04-18T09:33:05.931Z,12.27
2018-04-18T09:35:33.503Z,10.10
2018-04-18T09:38:01.076Z,11.03
2018-04-18T09:40:28.660Z,11.97
2018-04-18T09:42:56.202Z,12.70
2018-04-18T09:45:23.756Z,13.07
2018-04-18T09:47:52.086Z,12.87
2018-04-18T09:50:19.630Z,11.10
2018-04-18T09:52:47.201Z,10.03
2018-04-18T09:55:15.519Z,11.00
2018-04-18T09:57:43.084Z,8.77
2018-04-18T10:00:10.663Z,10.47
2018-04-18T10:02:38.221Z,9.63
2018-04-18T10:05:07.564Z,10.43
2018-04-18T10:07:35.125Z,10.43
2018-04-18T10:10:02.677Z,9.33
2018-04-18T10:12:30.247Z,10.40
2018-04-18T10:14:57.821Z,11.57
2018-04-18T10:17:25.380Z,9.43
2018-04-18T10:19:52.963Z,9.17
2018-04-18T10:22:21.287Z,11.53
2018-04-18T10:24:48.858Z,10.10
2018-04-18T10:27:16.430Z,10.77
2018-04-18T10:29:43.990Z,11.27
2018-04-18T10:32:11.570Z,10.10
2018-04-18T10:34:39.135Z,13.03
2018-04-18T10:37:06.718Z,9.87
2018-04-18T10:39:34.273Z,8.90
2018-04-18T10:42:01.822Z,9.70
2018-04-18T10:44:30.171Z,12.17
2018-04-18T10:46:57.734Z,11.73
2018-04-18T10:49:25.314Z,9.20
2018-04-18T10:51:52.863Z,10.80
2018-04-18T10:54:20.417Z,10.67
2018-04-18T10:56:48.746Z,10.40
2018-04-18T10:59:16.330Z,11.27
2018-04-18T11:01:43.906Z,11.43
2018-04-18T11:04:11.471Z,10.80
2018-04-18T11:06:39.020Z,10.70
2018-04-18T11:09:06.595Z,10.13
2018-04-18T11:11:34.144Z,9.13
2018-04-18T11:14:01.723Z,12.60
2018-04-18T11:16:29.291Z,10.63
2018-04-18T11:18:56.847Z,10.90
2018-04-18T11:21:25.183Z,11.83
2018-04-18T11:23:52.733Z,12.37
2018-04-18T11:26:20.319Z,12.13
2018-04-18T11:28:47.862Z,9.13
2018-04-18T11:31:16.192Z,12.93
2018-04-18T11:33:43.765Z,10.13
2018-04-18T11:36:11.359Z,12.10
2018-04-18T11:38:38.939Z,10.57
2018-04-18T11:41:06.500Z,11.90
2018-04-18T11:43:34.064Z,11.50
2018-04-18T11:46:01.621Z,10.77
2018-04-18T11:48:29.175Z,11.90
2018-04-18T11:50:56.751Z,10.77
2018-04-18T11:53:24.310Z,12.40
2018-04-18T11:55:52.626Z,9.73
2018-04-18T11:58:20.204Z,13.00
2018-04-18T12:00:47.749Z,9.73
2018-04-18T12:03:16.094Z,11.60
2018-04-18T12:05:43.656Z,9.20
2018-04-18T12:08:11.215Z,9.87
2018-04-18T12:10:38.787Z,10.10
2018-04-18T12:13:06.332Z,9.47
2018-04-18T12:15:33.915Z,10.40
2018-04-18T12:18:01.466Z,11.10
2018-04-18T12:20:29.782Z,11.67
2018-04-18T12:22:57.350Z,8.00
2018-04-18T12:25:24.906Z,10.03
2018-04-18T12:27:52.499Z,8.07
2018-04-18T12:30:20.055Z,7.30
2018-04-18T12:32:47.663Z,9.10
2018-04-18T12:35:15.233Z,10.00
2018-04-18T12:37:42.785Z,9.73
2018-04-18T12:40:10.380Z,9.00
2018-04-18T12:42:37.942Z,8.67
2018-04-18T12:45:05.494Z,8.17
2018-04-18T12:47:33.062Z,8.20
2018-04-18T12:50:01.387Z,11.23
2018-04-18T12:52:28.975Z,10.57
2018-04-18T12:54:56.537Z,9.00
2018-04-18T12:57:24.095Z,9.97
2018-04-18T12:59:51.658Z,9.03
2018-04-18T13:02:19.198Z,9.27
2018-04-18T13:04:47.546Z,11.10
2018-04-18T13:07:15.102Z,11.70
2018-04-18T13:09:42.674Z,11.80
2018-04-18T13:12:10.268Z,12.27
2018-04-18T13:14:37.822Z,14.03
2018-04-18T13:17:05.411Z,13.77
2018-04-18T13:19:32.974Z,12.00
2018-04-18T13:22:00.549Z,13.03
2018-04-18T13:24:28.121Z,12.50
2018-04-18T13:26:55.671Z,11.33
2018-04-18T13:29:23.260Z,15.83
2018-04-18T13:31:50.810Z,13.43
2018-04-18T13:34:18.367Z,11.77
2018-04-18T13:36:46.702Z,11.93
2018-04-18T13:39:14.272Z,8.40
2018-04-18T13:41:41.912Z,9.27
2018-04-18T13:44:09.464Z,11.80
2018-04-18T13:46:37.788Z,8.37
2018-04-18T13:49:05.357Z,11.07
2018-04-18T13:51:32.910Z,9.17
2018-04-18T13:54:01.256Z,10.63
2018-04-18T13:56:28.828Z,11.80
2018-04-18T13:58:56.403Z,9.40
2018-04-18T14:01:23.968Z,9.53
2018-04-18T14:03:51.519Z,10.63
2018-04-18T14:06:19.093Z,12.70
2018-04-18T14:08:46.643Z,10.90
2018-04-18T14:11:14.959Z,9.73
2018-04-18T14:13:42.574Z,11.40
2018-04-18T14:16:10.161Z,10.07
2018-04-18T14:18:38.502Z,9.73
2018-04-18T14:21:06.050Z,9.20
2018-04-18T14:23:33.599Z,9.80
2018-04-18T14:26:01.931Z,7.20
2018-04-18T14:28:29.511Z,6.87
2018-04-18T14:30:57.059Z,6.43
2018-04-18T14:33:24.622Z,6.80
2018-04-18T14:35:52.170Z,9.33
2018-04-18T14:38:19.750Z,9.83
2018-04-18T14:40:48.075Z,9.23
2018-04-18T14:43:15.635Z,7.93
2018-04-18T14:45:43.235Z,9.23
2018-04-18T14:48:10.795Z,8.23
2018-04-18T14:50:38.363Z,7.43
2018-04-18T14:53:05.909Z,7.23
2018-04-18T14:55:34.222Z,6.60
2018-04-18T14:58:01.793Z,7.60
2018-04-18T15:00:29.348Z,12.43
2018-04-18T15:02:57.693Z,10.13
2018-04-18T15:05:25.247Z,8.10
2018-04-18T15:07:52.791Z,6.70
2018-04-18T15:10:20.358Z,5.43
2018-04-18T15:12:48.672Z,5.50
2018-04-18T15:15:16.260Z,6.10
2018-04-18T15:17:43.905Z,7.00
2018-04-18T15:20:11.474Z,6.60
2018-04-18T15:22:39.107Z,7.00
2018-04-18T15:25:06.606Z,6.10
2018-04-18T15:27:34.951Z,7.50
2018-04-18T15:30:02.512Z,6.73
2018-04-18T15:32:30.076Z,7.43
2018-04-18T15:34:57.711Z,6.70
2018-04-18T15:37:26.042Z,7.87
2018-04-18T15:39:53.642Z,6.80
2018-04-18T15:42:21.203Z,6.63
2018-04-18T15:44:48.768Z,7.87
2018-04-18T15:47:16.350Z,6.33
2018-04-18T15:49:43.941Z,6.53
2018-04-18T15:52:11.711Z,7.03
2018-04-18T15:54:39.275Z,6.57
2018-04-18T15:57:06.837Z,7.40
2018-04-18T15:59:34.415Z,7.13
2018-04-18T16:02:01.975Z,7.43
2018-04-18T16:04:29.862Z,6.57
2018-04-18T16:07:00.350Z,7.60
2018-04-18T16:09:28.594Z,6.87
2018-04-18T16:11:56.998Z,8.40
2018-04-18T16:14:24.562Z,7.80
2018-04-18T16:16:52.143Z,8.83
2018-04-18T16:19:19.695Z,9.90
2018-04-18T16:21:47.267Z,10.80
2018-04-18T16:24:14.853Z,10.10
2018-04-18T16:26:42.427Z,11.00
2018-04-18T16:29:21.794Z,9.47
2018-04-18T16:31:49.355Z,10.23
2018-04-18T16:34:16.914Z,10.17
2018-04-18T16:36:44.490Z,9.93
2018-04-18T16:39:12.066Z,11.30
2018-04-18T16:41:39.712Z,11.00
2018-04-18T16:44:08.118Z,10.80
2018-04-18T16:46:35.704Z,11.97
2018-04-18T16:49:03.329Z,14.00
2018-04-18T16:51:31.682Z,10.17
2018-04-18T16:53:59.267Z,10.07
2018-04-18T16:56:26.860Z,12.73
2018-04-18T16:58:54.450Z,13.63
2018-04-18T17:01:22.808Z,12.40
2018-04-18T17:03:50.379Z,13.70
2018-04-18T17:06:17.975Z,12.00
2018-04-18T17:08:46.334Z,11.40
2018-04-18T17:11:13.898Z,10.67
2018-04-18T17:13:41.470Z,14.90
2018-04-18T17:16:09.022Z,12.00
2018-04-18T17:18:36.610Z,10.20
2018-04-18T17:21:04.182Z,11.13
2018-04-18T17:23:31.755Z,9.70
2018-04-18T17:25:59.335Z,9.60
2018-04-18T17:28:26.899Z,8.93
2018-04-18T17:30:54.487Z,9.73
2018-04-18T17:33:22.051Z,10.67
2018-04-18T17:35:49.603Z,9.30
2018-04-18T17:38:17.182Z,8.63
2018-04-18T17:40:44.745Z,8.43
2018-04-18T17:43:12.326Z,7.87
2018-04-18T17:45:39.869Z,8.93
2018-04-18T17:48:08.186Z,10.47
2018-04-18T17:50:35.779Z,9.50
2018-04-18T17:53:03.343Z,7.30
2018-04-18T17:55:31.097Z,8.70
2018-04-18T17:57:58.759Z,7.43
2018-04-18T18:00:27.090Z,8.30
2018-04-18T18:02:54.655Z,8.07
2018-04-18T18:05:22.207Z,7.00
2018-04-18T18:07:49.784Z,7.43
2018-04-18T18:10:17.344Z,9.03
2018-04-18T18:12:45.809Z,15.10
2018-04-18T18:15:14.178Z,24.07
2018-04-18T18:17:41.748Z,24.70
2018-04-18T18:20:09.351Z,18.63
2018-04-18T18:22:36.927Z,13.30
2018-04-18T18:25:05.251Z,12.87
2018-04-18T18:27:32.837Z,12.53
2018-04-18T18:30:00.396Z,10.57
2018-04-18T18:32:27.969Z,13.60
2018-04-18T18:34:55.555Z,10.80
2018-04-18T18:37:27.289Z,9.50
2018-04-18T18:39:55.629Z,9.20
2018-04-18T18:42:23.179Z,7.23
2018-04-18T18:44:50.864Z,8.02
2018-04-18T18:47:18.479Z,8.90
2018-04-18T18:49:46.058Z,8.53
2018-04-18T18:52:13.651Z,9.33
2018-04-18T18:54:41.228Z,8.23
2018-04-18T18:57:08.816Z,8.55
2018-04-18T18:59:36.431Z,10.13
2018-04-18T19:02:04.023Z,9.18
2018-04-18T19:04:31.645Z,7.80
2018-04-18T19:06:59.274Z,9.43
2018-04-18T19:09:26.872Z,9.90
2018-04-18T19:11:54.491Z,9.02
2018-04-18T19:14:22.073Z,9.05
2018-04-18T19:16:49.704Z,9.77
2018-04-18T19:19:17.317Z,10.95
2018-04-18T19:21:45.711Z,10.15
2018-04-18T19:24:14.820Z,10.18
2018-04-18T19:26:42.460Z,11.88
2018-04-18T19:29:10.857Z,10.10
2018-04-18T19:31:40.099Z,10.85
2018-04-18T19:34:08.470Z,11.12
2018-04-18T19:36:36.104Z,11.38
2018-04-18T19:39:03.724Z,11.25
2018-04-18T19:41:31.413Z,11.27
2018-04-18T19:43:59.457Z,12.23
2018-04-18T19:46:27.126Z,12.82
2018-04-18T19:48:54.834Z,11.95
2018-04-18T19:51:22.429Z,13.07
2018-04-18T19:53:50.060Z,12.05
2018-04-18T19:56:17.659Z,12.30
2018-04-18T19:58:45.490Z,11.88
2018-04-18T20:01:13.168Z,12.07
2018-04-18T20:03:40.763Z,13.68
2018-04-18T20:06:08.416Z,12.70
2018-04-18T20:08:36.012Z,12.93
2018-04-18T20:11:03.615Z,13.50
2018-04-18T20:13:31.226Z,13.20
2018-04-18T20:15:59.583Z,11.80
2018-04-18T20:18:27.191Z,13.62
2018-04-18T20:20:55.546Z,13.27
2018-04-18T20:23:23.127Z,13.23
2018-04-18T20:25:50.726Z,14.18
2018-04-18T20:28:19.132Z,12.80
2018-04-18T20:30:46.721Z,12.80
2018-04-18T20:33:14.297Z,13.60
2018-04-18T20:35:41.892Z,12.65
2018-04-18T20:38:09.529Z,12.10
2018-04-18T20:40:37.864Z,13.07
2018-04-18T20:43:05.474Z,12.95
2018-04-18T20:45:33.072Z,20.25
2018-04-18T20:48:00.691Z,16.67
2018-04-18T20:50:28.279Z,16.25
2018-04-18T20:52:55.866Z,17.10
2018-04-18T20:55:24.268Z,12.73
2018-04-18T20:57:52.593Z,12.05
2018-04-18T21:00:20.211Z,12.52
2018-04-18T21:02:47.786Z,13.77
2018-04-18T21:05:16.195Z,16.00
2018-04-18T21:07:43.759Z,14.00
2018-04-18T21:10:12.122Z,14.23
2018-04-18T21:12:39.738Z,16.65
2018-04-18T21:15:07.323Z,15.50
2018-04-18T21:17:34.918Z,15.73
2018-04-18T21:20:02.519Z,15.23
2018-04-18T21:22:30.103Z,14.10
2018-04-18T21:24:57.715Z,14.32
2018-04-18T21:27:25.297Z,13.57
2018-04-18T21:29:52.887Z,15.93
2018-04-18T21:32:20.514Z,13.62
2018-04-18T21:34:48.110Z,15.27
2018-04-18T21:37:15.714Z,15.18
2018-04-18T21:39:43.321Z,15.52
2018-04-18T21:42:11.679Z,15.45
2018-04-18T21:44:39.278Z,16.10
2018-04-18T21:47:06.874Z,14.98
2018-04-18T21:49:34.480Z,16.23
2018-04-18T21:52:02.058Z,16.42
2018-04-18T21:54:29.647Z,15.35
2018-04-18T21:56:57.255Z,14.27
2018-04-18T21:59:25.604Z,13.65
2018-04-18T22:13:18.667Z,15.90
2018-04-18T22:15:46.255Z,18.70
2018-04-18T22:18:13.846Z,13.95
2018-04-18T22:20:41.467Z,17.87
2018-04-18T22:23:09.821Z,17.73
2018-04-18T22:25:37.415Z,16.20
2018-04-18T22:28:05.021Z,17.20
2018-04-18T22:30:38.286Z,15.80
2018-04-18T22:33:05.900Z,23.33
2018-04-18T22:35:33.478Z,20.35
2018-04-18T22:38:01.062Z,18.00
2018-04-18T22:40:28.669Z,17.40
2018-04-18T22:42:56.254Z,18.95
2018-04-18T22:45:23.851Z,20.10
2018-04-18T22:47:52.227Z,16.33
2018-04-18T22:50:19.802Z,18.65
2018-04-18T22:52:47.394Z,18.42
2018-04-18T22:55:15.778Z,19.27
2018-04-18T22:57:44.167Z,20.85
2018-04-18T23:00:12.521Z,23.40
2018-04-18T23:02:40.138Z,18.83
2018-04-18T23:05:08.514Z,18.85
2018-04-18T23:07:36.102Z,18.80
2018-04-18T23:10:04.444Z,22.10
2018-04-18T23:12:32.056Z,16.30
2018-04-18T23:15:00.415Z,16.60
2018-04-18T23:17:28.018Z,21.17
2018-04-18T23:19:55.606Z,21.55
2018-04-18T23:22:33.776Z,20.00
2018-04-18T23:25:01.358Z,20.70
2018-04-18T23:27:28.978Z,19.65
2018-04-18T23:29:57.334Z,18.17
2018-04-18T23:32:24.922Z,17.65
2018-04-18T23:34:52.531Z,19.50
2018-04-18T23:37:20.118Z,19.55
2018-04-18T23:39:47.713Z,22.08
2018-04-18T23:42:15.303Z,23.25
2018-04-18T23:44:42.902Z,22.37
2018-04-18T23:47:11.262Z,21.85
2018-04-18T23:49:38.854Z,23.50
2018-04-18T23:52:06.438Z,22.00
2018-04-18T23:54:34.782Z,22.67
2018-04-18T23:57:02.387Z,18.65
2018-04-18T23:59:29.967Z,16.58
